EGNS/IOM METAR and TAF weather

Enter ICAO airport designator
Station Type Date Time Source
EGNS METAR 2022/11/30 17:20 UTC NOAA

EGNS 301720Z 11008KT 9999 BKN010 08/06 Q1025 NOSIG


Station Type Date Time Source
EGNS Decoded METAR 2022/11/30 17:20 UTC NOAA

Isle Of Man / Ronaldsway Airport, United Kingdom (EGNS) 54-05N 004-38W 0M
Nov 30, 2022 - 12:20 PM EST / 2022.11.30 1720 UTC
Wind: from the ESE (110 degrees) at 9 MPH (8 KT):0
Visibility: greater than 7 mile(s):0
Sky conditions: mostly cloudy
Temperature: 46 F (8 C)
Dew Point: 42 F (6 C)
Relative Humidity: 87%
Pressure (altimeter): 30.27 in. Hg (1025 hPa)
ob: EGNS 301720Z 11008KT 9999 BKN010 08/06 Q1025 NOSIG
cycle: 17

Station Type Date Time Source
EGNS TAF 2022/07/29 08:00 UTC NOAA

TAF EGNS 290800Z 290800 2909/2918 16006KT 9999 FEW020 SCT045

Example: see airport list